createdAt,value
2019-02-09T00:02:07.030Z,7.37
2019-02-09T00:04:33.530Z,11.15
2019-02-09T00:07:00.023Z,8.40
2019-02-09T00:09:26.561Z,8.40
2019-02-09T00:11:53.010Z,6.90
2019-02-09T00:14:19.377Z,10.48
2019-02-09T00:16:45.828Z,7.33
2019-02-09T00:19:12.296Z,7.05
2019-02-09T00:21:38.749Z,8.50
2019-02-09T00:24:05.243Z,10.53
2019-02-09T00:26:31.902Z,7.55
2019-02-09T00:28:58.498Z,8.43
2019-02-09T00:31:24.946Z,7.35
2019-02-09T00:33:51.414Z,6.05
2019-02-09T00:36:18.065Z,9.33
2019-02-09T00:38:44.529Z,7.22
2019-02-09T00:41:11.193Z,10.08
2019-02-09T00:43:37.765Z,11.12
2019-02-09T00:46:07.252Z,9.90
2019-02-09T00:48:33.782Z,7.15
2019-02-09T00:51:00.669Z,10.05
2019-02-09T00:53:27.201Z,8.18
2019-02-09T00:55:53.993Z,6.35
2019-02-09T00:58:20.690Z,7.20
2019-02-09T01:00:47.171Z,8.08
2019-02-09T01:03:13.878Z,8.35
2019-02-09T01:05:42.666Z,8.70
2019-02-09T01:08:09.533Z,8.70
2019-02-09T01:10:36.035Z,8.23
2019-02-09T01:13:03.158Z,8.43
2019-02-09T01:15:29.652Z,8.08
2019-02-09T01:17:56.137Z,11.90
2019-02-09T01:20:25.182Z,6.83
2019-02-09T01:22:52.546Z,9.70
2019-02-09T01:25:19.106Z,9.28
2019-02-09T01:27:45.842Z,11.10
2019-02-09T01:30:20.179Z,11.68
2019-02-09T01:32:46.843Z,10.90
2019-02-09T01:35:14.274Z,10.82
2019-02-09T01:37:41.171Z,6.30
2019-02-09T01:40:11.205Z,7.60
2019-02-09T01:42:37.670Z,7.08
2019-02-09T01:45:07.574Z,7.37
2019-02-09T01:47:34.077Z,7.40
2019-02-09T01:50:00.687Z,7.35
2019-02-09T01:52:27.134Z,8.33
2019-02-09T01:54:53.695Z,9.05
2019-02-09T01:57:20.266Z,9.08
2019-02-09T01:59:46.768Z,8.65
2019-02-09T02:02:13.459Z,9.75
2019-02-09T02:04:40.128Z,6.97
2019-02-09T02:07:07.055Z,9.65
2019-02-09T02:09:33.642Z,7.35
2019-02-09T02:12:00.258Z,8.68
2019-02-09T02:14:26.796Z,8.05
2019-02-09T02:16:53.401Z,11.08
2019-02-09T02:19:19.871Z,11.08
2019-02-09T02:21:46.347Z,9.00
2019-02-09T02:24:12.815Z,10.20
2019-02-09T02:26:39.406Z,7.97
2019-02-09T02:29:05.914Z,7.25
2019-02-09T02:31:32.404Z,7.65
2019-02-09T02:33:58.870Z,11.78
2019-02-09T02:36:25.334Z,9.08
2019-02-09T02:38:51.974Z,9.35
2019-02-09T02:41:18.564Z,7.87
2019-02-09T02:43:45.035Z,10.25
2019-02-09T02:46:11.729Z,7.05
2019-02-09T02:48:38.280Z,8.05
2019-02-09T02:51:04.845Z,7.75
2019-02-09T02:53:31.613Z,9.53
2019-02-09T02:55:58.199Z,7.20
2019-02-09T02:58:24.605Z,7.80
2019-02-09T03:00:51.372Z,7.33
2019-02-09T03:03:17.850Z,7.47
2019-02-09T03:05:44.339Z,6.53
2019-02-09T03:08:11.088Z,8.80
2019-02-09T03:10:37.644Z,7.65
2019-02-09T03:13:04.253Z,6.50
2019-02-09T03:15:32.364Z,7.45
2019-02-09T03:17:58.878Z,6.80
2019-02-09T03:20:25.492Z,8.53
2019-02-09T03:22:52.112Z,6.47
2019-02-09T03:25:26.676Z,6.70
2019-02-09T03:27:53.299Z,6.03
2019-02-09T03:30:22.298Z,6.15
2019-02-09T03:32:48.877Z,5.70
2019-02-09T03:35:16.079Z,7.03
2019-02-09T03:37:42.661Z,6.50
2019-02-09T03:40:12.082Z,5.55
2019-02-09T03:42:38.570Z,6.95
2019-02-09T03:45:08.777Z,5.62
2019-02-09T03:47:35.366Z,5.03
2019-02-09T03:50:03.443Z,4.67
2019-02-09T03:52:29.891Z,6.05
2019-02-09T03:54:56.419Z,6.42
2019-02-09T03:57:24.720Z,6.28
2019-02-09T03:59:51.295Z,8.40
2019-02-09T04:02:17.811Z,6.00
2019-02-09T04:04:44.344Z,8.30
2019-02-09T04:07:10.854Z,7.08
2019-02-09T04:09:37.380Z,8.05
2019-02-09T04:12:04.004Z,8.03
2019-02-09T04:14:30.589Z,12.18
2019-02-09T04:16:57.083Z,9.48
2019-02-09T04:19:23.679Z,6.58
2019-02-09T04:21:50.312Z,7.72
2019-02-09T04:24:16.768Z,8.08
2019-02-09T04:26:43.359Z,7.20
2019-02-09T04:29:09.827Z,9.28
2019-02-09T04:31:36.445Z,6.87
2019-02-09T04:34:03.271Z,9.10
2019-02-09T04:36:29.788Z,7.45
2019-02-09T04:38:56.271Z,10.55
2019-02-09T04:41:22.954Z,8.68
2019-02-09T04:43:49.429Z,9.18
2019-02-09T04:46:15.946Z,9.20
2019-02-09T04:48:42.390Z,7.05
2019-02-09T04:51:08.855Z,8.40
2019-02-09T04:53:35.468Z,8.50
2019-02-09T04:56:01.923Z,8.90
2019-02-09T04:58:28.395Z,9.20
2019-02-09T05:00:55.004Z,9.10
2019-02-09T05:03:21.499Z,8.80
2019-02-09T05:05:48.057Z,6.95
2019-02-09T05:08:14.537Z,7.90
2019-02-09T05:10:41.004Z,5.22
2019-02-09T05:13:07.642Z,8.63
2019-02-09T05:15:34.214Z,11.25
2019-02-09T05:18:00.976Z,8.68
2019-02-09T05:20:27.527Z,6.65
2019-02-09T05:22:54.112Z,7.40
2019-02-09T05:25:20.850Z,10.93
2019-02-09T05:27:47.446Z,11.20
2019-02-09T05:30:25.421Z,7.50
2019-02-09T05:32:52.343Z,7.97
2019-02-09T05:35:18.826Z,8.48
2019-02-09T05:37:45.510Z,6.85
2019-02-09T05:40:15.710Z,10.25
2019-02-09T05:42:42.282Z,9.13
2019-02-09T05:45:14.771Z,7.10
2019-02-09T05:47:41.257Z,7.30
2019-02-09T05:50:11.025Z,7.85
2019-02-09T05:52:37.859Z,6.78
2019-02-09T05:55:06.433Z,7.65
2019-02-09T05:57:33.036Z,9.60
2019-02-09T05:59:59.506Z,7.70
2019-02-09T06:02:25.997Z,8.65
2019-02-09T06:04:52.484Z,8.88
2019-02-09T06:07:19.281Z,8.78
2019-02-09T06:09:46.059Z,7.75
2019-02-09T06:12:12.552Z,13.43
2019-02-09T06:14:41.183Z,8.25
2019-02-09T06:17:07.825Z,9.48
2019-02-09T06:19:34.301Z,14.20
2019-02-09T06:22:01.342Z,11.73
2019-02-09T06:24:27.792Z,13.13
2019-02-09T06:26:54.477Z,10.78
2019-02-09T06:29:21.307Z,13.30
2019-02-09T06:31:47.859Z,11.97
2019-02-09T06:34:14.322Z,10.10
2019-02-09T06:36:40.819Z,12.15
2019-02-09T06:39:07.331Z,13.03
2019-02-09T06:41:33.793Z,11.60
2019-02-09T06:44:00.274Z,11.90
2019-02-09T06:46:26.779Z,13.30
2019-02-09T06:48:53.138Z,12.15
2019-02-09T06:51:19.610Z,15.13
2019-02-09T06:53:46.098Z,15.85
2019-02-09T06:56:12.628Z,11.25
2019-02-09T06:58:39.210Z,13.88
2019-02-09T07:01:05.643Z,12.82
2019-02-09T07:03:32.099Z,10.98
2019-02-09T07:05:58.771Z,13.45
2019-02-09T07:08:25.242Z,16.05
2019-02-09T07:10:51.809Z,12.82
2019-02-09T07:13:18.396Z,10.08
2019-02-09T07:15:45.133Z,10.63
2019-02-09T07:18:11.754Z,13.72
2019-02-09T07:20:38.451Z,10.75
2019-02-09T07:23:05.345Z,11.00
2019-02-09T07:25:31.928Z,12.90
2019-02-09T07:27:58.482Z,16.35
2019-02-09T07:30:29.413Z,13.75
2019-02-09T07:32:56.787Z,9.98
2019-02-09T07:35:23.284Z,14.15
2019-02-09T07:37:49.755Z,15.03
2019-02-09T07:40:19.146Z,9.90
2019-02-09T07:42:45.612Z,12.88
2019-02-09T07:45:16.335Z,17.50
2019-02-09T07:47:42.838Z,14.13
2019-02-09T07:50:12.062Z,11.95
2019-02-09T07:52:38.542Z,13.83
2019-02-09T07:55:11.691Z,12.53
2019-02-09T07:57:38.230Z,10.85
2019-02-09T08:00:08.438Z,13.20
2019-02-09T08:02:35.166Z,12.88
2019-02-09T08:05:06.669Z,12.23
2019-02-09T08:07:33.236Z,14.03
2019-02-09T08:09:59.913Z,12.53
2019-02-09T08:12:26.480Z,9.20
2019-02-09T08:14:56.110Z,10.80
2019-02-09T08:17:25.099Z,16.65
2019-02-09T08:19:53.662Z,11.40
2019-02-09T08:22:20.222Z,13.83
2019-02-09T08:24:46.812Z,8.95
2019-02-09T08:27:13.514Z,11.22
2019-02-09T08:29:40.098Z,9.40
2019-02-09T08:32:12.621Z,13.18
2019-02-09T08:34:35.166Z,9.98
2019-02-09T08:37:01.673Z,12.98
2019-02-09T08:39:28.290Z,14.38
2019-02-09T08:41:54.765Z,12.05
2019-02-09T08:44:21.259Z,11.65
2019-02-09T08:46:47.839Z,11.25
2019-02-09T08:49:14.334Z,12.35
2019-02-09T08:51:40.833Z,15.63
2019-02-09T08:54:07.395Z,15.43
2019-02-09T08:56:33.834Z,11.80
2019-02-09T08:59:00.340Z,11.22
2019-02-09T09:01:26.811Z,17.12
2019-02-09T09:03:53.310Z,11.45
2019-02-09T09:06:19.788Z,13.75
2019-02-09T09:08:46.263Z,10.90
2019-02-09T09:11:12.850Z,11.50
2019-02-09T09:13:39.467Z,10.68
2019-02-09T09:16:07.248Z,13.40
2019-02-09T09:18:33.815Z,12.90
2019-02-09T09:21:03.191Z,12.00
2019-02-09T09:23:29.646Z,10.60
2019-02-09T09:25:56.317Z,14.23
2019-02-09T09:28:25.407Z,12.95
2019-02-09T09:30:51.995Z,9.58
2019-02-09T09:33:18.670Z,11.45
2019-02-09T09:35:45.229Z,11.50
2019-02-09T09:38:11.751Z,11.80
2019-02-09T09:40:42.442Z,12.23
2019-02-09T09:43:09.111Z,10.50
2019-02-09T09:45:37.382Z,12.88
2019-02-09T09:48:05.643Z,11.33
2019-02-09T09:50:32.272Z,12.50
2019-02-09T09:52:58.762Z,11.60
2019-02-09T09:55:26.318Z,11.40
2019-02-09T09:57:52.995Z,12.50
2019-02-09T10:00:21.986Z,11.25
2019-02-09T10:02:48.648Z,10.98
2019-02-09T10:05:15.422Z,15.53
2019-02-09T10:07:41.944Z,10.32
2019-02-09T10:10:14.315Z,15.30
2019-02-09T10:12:41.033Z,13.28
2019-02-09T10:15:10.377Z,10.45
2019-02-09T10:17:37.013Z,10.82
2019-02-09T10:20:07.042Z,14.28
2019-02-09T10:22:33.690Z,10.03
2019-02-09T10:25:00.342Z,10.53
2019-02-09T10:27:26.958Z,10.63
2019-02-09T10:29:53.446Z,14.38
2019-02-09T10:32:20.505Z,12.18
2019-02-09T10:34:46.970Z,12.20
2019-02-09T10:37:13.665Z,10.95
2019-02-09T10:39:40.176Z,13.25
2019-02-09T10:42:06.613Z,10.50
2019-02-09T10:44:33.093Z,12.35
2019-02-09T10:46:59.857Z,8.18
2019-02-09T10:49:26.405Z,9.05
2019-02-09T10:51:52.996Z,8.53
2019-02-09T10:54:19.583Z,10.15
2019-02-09T10:56:46.033Z,10.82
2019-02-09T10:59:12.645Z,7.58
2019-02-09T11:01:39.209Z,8.15
2019-02-09T11:04:06.338Z,9.58
2019-02-09T11:06:33.742Z,10.93
2019-02-09T11:09:00.325Z,7.72
2019-02-09T11:11:26.802Z,8.58
2019-02-09T11:13:53.286Z,9.18
2019-02-09T11:16:19.839Z,8.05
2019-02-09T11:18:46.339Z,9.68
2019-02-09T11:21:12.879Z,8.53
2019-02-09T11:23:39.590Z,7.67
2019-02-09T11:26:06.086Z,6.87
2019-02-09T11:28:32.567Z,7.10
2019-02-09T11:30:59.323Z,8.88
2019-02-09T11:33:25.789Z,8.98
2019-02-09T11:35:52.271Z,8.13
2019-02-09T11:38:18.798Z,8.98
2019-02-09T11:40:45.568Z,9.68
2019-02-09T11:43:12.049Z,8.50
2019-02-09T11:45:39.581Z,9.98
2019-02-09T11:48:06.069Z,9.10
2019-02-09T11:50:32.646Z,9.55
2019-02-09T11:52:59.298Z,13.38
2019-02-09T11:55:25.934Z,8.65
2019-02-09T11:57:52.396Z,10.35
2019-02-09T12:00:24.772Z,9.13
2019-02-09T12:02:51.321Z,10.48
2019-02-09T12:05:17.951Z,9.85
2019-02-09T12:07:44.399Z,9.68
2019-02-09T12:10:19.116Z,8.33
2019-02-09T12:12:45.883Z,10.70
2019-02-09T12:15:15.655Z,11.10
2019-02-09T12:17:42.770Z,11.95
2019-02-09T12:20:12.772Z,11.08
2019-02-09T12:22:39.238Z,10.90
2019-02-09T12:25:09.419Z,11.00
2019-02-09T12:27:36.102Z,10.60
2019-02-09T12:30:06.172Z,12.05
2019-02-09T12:32:32.753Z,10.18
2019-02-09T12:34:59.386Z,10.30
2019-02-09T12:37:25.835Z,10.53
2019-02-09T12:39:52.298Z,7.45
2019-02-09T12:42:18.800Z,11.75
2019-02-09T12:44:45.270Z,9.98
2019-02-09T12:47:11.784Z,10.10
2019-02-09T12:49:38.776Z,11.43
2019-02-09T12:52:05.355Z,8.98
2019-02-09T12:54:31.830Z,9.60
2019-02-09T12:56:58.501Z,11.63
2019-02-09T12:59:24.963Z,9.23
2019-02-09T13:01:51.576Z,8.55
2019-02-09T13:04:18.030Z,9.55
2019-02-09T13:06:44.612Z,8.50
2019-02-09T13:09:11.079Z,9.68
2019-02-09T13:11:37.760Z,8.53
2019-02-09T13:14:04.233Z,10.95
2019-02-09T13:16:30.694Z,9.35
2019-02-09T13:18:57.354Z,7.87
2019-02-09T13:21:23.970Z,8.00
2019-02-09T13:23:50.324Z,8.70
2019-02-09T13:26:16.807Z,8.10
2019-02-09T13:28:43.273Z,8.00
2019-02-09T13:31:09.750Z,7.00
2019-02-09T13:33:39.038Z,6.42
2019-02-09T13:36:04.851Z,7.00
2019-02-09T13:38:31.371Z,5.37
2019-02-09T13:40:57.902Z,7.20
2019-02-09T13:43:24.395Z,7.25
2019-02-09T13:45:50.870Z,5.72
2019-02-09T13:48:17.526Z,5.92
2019-02-09T13:50:43.976Z,5.55
2019-02-09T13:53:10.462Z,4.30
2019-02-09T13:55:37.074Z,5.12
2019-02-09T13:58:03.740Z,4.72
2019-02-09T14:00:31.056Z,6.45
2019-02-09T14:02:57.797Z,5.05
2019-02-09T14:05:24.258Z,4.65
2019-02-09T14:07:51.051Z,6.65
2019-02-09T14:10:22.126Z,5.47
2019-02-09T14:12:49.210Z,6.42
2019-02-09T14:15:17.890Z,4.17
2019-02-09T14:17:44.610Z,4.37
2019-02-09T14:20:13.106Z,5.00
2019-02-09T14:22:39.761Z,4.70
2019-02-09T14:25:08.227Z,4.70
2019-02-09T14:27:34.697Z,5.42
2019-02-09T14:30:01.189Z,5.65
2019-02-09T14:32:27.650Z,5.42
2019-02-09T14:34:54.129Z,5.22
2019-02-09T14:37:20.606Z,4.83
2019-02-09T14:39:47.100Z,6.75
2019-02-09T14:42:13.771Z,4.15
2019-02-09T14:44:40.300Z,4.15
2019-02-09T14:47:06.885Z,4.58
2019-02-09T14:49:33.314Z,6.00
2019-02-09T14:51:59.831Z,4.35
2019-02-09T14:54:26.362Z,4.12
2019-02-09T14:56:52.822Z,6.03
2019-02-09T14:59:19.311Z,7.20
2019-02-09T15:01:45.882Z,5.53
2019-02-09T15:04:12.329Z,4.35
2019-02-09T15:06:38.801Z,8.75
2019-02-09T15:09:06.250Z,5.45
2019-02-09T15:11:32.757Z,5.50
2019-02-09T15:13:59.286Z,4.95
2019-02-09T15:16:27.768Z,4.90
2019-02-09T15:18:54.170Z,7.55
2019-02-09T15:21:20.576Z,7.03
2019-02-09T15:23:47.062Z,5.58
2019-02-09T15:26:13.534Z,7.20
2019-02-09T15:28:40.056Z,6.78
2019-02-09T15:31:06.561Z,6.65
2019-02-09T15:33:33.070Z,6.50
2019-02-09T15:35:59.631Z,9.53
2019-02-09T15:38:26.106Z,7.60
2019-02-09T15:40:52.588Z,8.65
2019-02-09T15:43:19.235Z,6.60
2019-02-09T15:45:45.706Z,7.97
2019-02-09T15:48:12.201Z,8.90
2019-02-09T15:50:38.659Z,8.38
2019-02-09T15:53:05.609Z,7.53
2019-02-09T15:55:32.179Z,7.78
2019-02-09T15:57:58.671Z,6.95
2019-02-09T16:00:29.345Z,8.60
2019-02-09T16:02:59.631Z,7.95
2019-02-09T16:05:26.376Z,8.73
2019-02-09T16:07:52.850Z,6.40
2019-02-09T16:10:20.486Z,8.65
2019-02-09T16:12:47.433Z,6.92
2019-02-09T16:15:16.461Z,7.58
2019-02-09T16:17:43.142Z,8.03
2019-02-09T16:20:15.270Z,13.70
2019-02-09T16:22:41.909Z,13.10
2019-02-09T16:25:09.178Z,9.93
2019-02-09T16:27:35.544Z,13.90
2019-02-09T16:30:05.603Z,5.45
2019-02-09T16:32:32.058Z,8.63
2019-02-09T16:34:58.570Z,4.72
2019-02-09T16:37:25.133Z,4.83
2019-02-09T16:39:51.630Z,5.92
2019-02-09T16:42:18.082Z,6.20
2019-02-09T16:44:44.661Z,6.17
2019-02-09T16:47:11.519Z,6.12
2019-02-09T16:49:37.969Z,5.85
2019-02-09T16:52:04.530Z,8.50
2019-02-09T16:54:31.020Z,6.80
2019-02-09T16:56:57.491Z,5.08
2019-02-09T16:59:24.090Z,4.45
2019-02-09T17:01:50.681Z,7.95
2019-02-09T17:04:17.170Z,6.45
2019-02-09T17:06:43.651Z,3.67
2019-02-09T17:09:10.285Z,6.17
2019-02-09T17:11:36.771Z,3.75
2019-02-09T17:14:06.379Z,6.05
2019-02-09T17:16:32.807Z,5.10
2019-02-09T17:18:59.406Z,5.15
2019-02-09T17:21:26.782Z,7.03
2019-02-09T17:23:53.279Z,4.62
2019-02-09T17:26:22.430Z,7.55
2019-02-09T17:28:51.834Z,5.20
2019-02-09T17:31:18.334Z,5.55
2019-02-09T17:33:46.714Z,6.90
2019-02-09T17:36:13.379Z,4.22
2019-02-09T17:38:39.873Z,6.85
2019-02-09T17:41:06.320Z,4.85
2019-02-09T17:43:33.107Z,4.70
2019-02-09T17:46:03.246Z,5.03
2019-02-09T17:48:29.919Z,7.33
2019-02-09T17:50:56.578Z,4.40
2019-02-09T17:53:23.025Z,5.37
2019-02-09T17:55:49.686Z,6.37
2019-02-09T17:58:19.192Z,4.72
2019-02-09T18:00:50.314Z,4.75
2019-02-09T18:03:19.870Z,6.10
2019-02-09T18:05:46.435Z,6.58
2019-02-09T18:08:12.897Z,7.15
2019-02-09T18:10:39.578Z,4.50
2019-02-09T18:13:06.071Z,5.72
2019-02-09T18:15:32.706Z,4.30
2019-02-09T18:17:59.116Z,6.08
2019-02-09T18:20:25.514Z,5.10
2019-02-09T18:22:51.979Z,5.55
2019-02-09T18:25:21.002Z,6.28
2019-02-09T18:27:47.471Z,5.62
2019-02-09T18:30:24.620Z,7.40
2019-02-09T18:32:51.205Z,6.35
2019-02-09T18:35:17.867Z,6.75
2019-02-09T18:37:44.426Z,6.33
2019-02-09T18:40:14.115Z,10.13
2019-02-09T18:42:40.698Z,7.03
2019-02-09T18:45:10.823Z,7.10
2019-02-09T18:47:37.275Z,5.97
2019-02-09T18:50:07.484Z,7.35
2019-02-09T18:52:33.989Z,4.33
2019-02-09T18:55:00.560Z,6.58
2019-02-09T18:57:27.029Z,7.80
2019-02-09T18:59:53.520Z,5.17
2019-02-09T19:02:20.026Z,6.45
2019-02-09T19:04:46.597Z,6.17
2019-02-09T19:07:13.328Z,7.40
2019-02-09T19:09:39.909Z,6.05
2019-02-09T19:12:06.498Z,4.95
2019-02-09T19:14:33.195Z,6.83
2019-02-09T19:16:59.606Z,6.12
2019-02-09T19:19:26.075Z,6.20
2019-02-09T19:21:52.544Z,5.25
2019-02-09T19:24:19.024Z,6.85
2019-02-09T19:26:45.577Z,5.97
2019-02-09T19:29:12.179Z,7.97
2019-02-09T19:31:38.634Z,5.95
2019-02-09T19:34:05.152Z,5.53
2019-02-09T19:36:31.611Z,7.47
2019-02-09T19:38:58.090Z,5.15
2019-02-09T19:41:24.551Z,10.15
2019-02-09T19:43:51.347Z,5.62
2019-02-09T19:46:17.829Z,5.95
2019-02-09T19:48:44.291Z,5.03
2019-02-09T19:51:11.093Z,5.90
2019-02-09T19:53:37.573Z,5.78
2019-02-09T19:56:04.061Z,7.08
2019-02-09T19:58:30.753Z,5.33
2019-02-09T20:00:57.510Z,10.78
2019-02-09T20:03:25.777Z,5.95
2019-02-09T20:05:52.552Z,3.85
2019-02-09T20:08:19.011Z,5.85
2019-02-09T20:10:45.490Z,8.75
2019-02-09T20:13:12.912Z,9.53
2019-02-09T20:15:39.429Z,10.15
2019-02-09T20:18:06.870Z,9.55
2019-02-09T20:20:33.327Z,7.90
2019-02-09T20:22:59.791Z,9.48
2019-02-09T20:25:27.158Z,8.33
2019-02-09T20:27:53.906Z,6.12
2019-02-09T20:30:23.067Z,6.70
2019-02-09T20:32:50.115Z,6.87
2019-02-09T20:35:18.405Z,6.03
2019-02-09T20:37:45.277Z,9.33
2019-02-09T20:40:21.036Z,10.93
2019-02-09T20:42:47.610Z,7.95
2019-02-09T20:45:14.965Z,5.20
2019-02-09T20:47:47.926Z,8.75
2019-02-09T20:50:14.335Z,8.28
2019-02-09T20:52:40.806Z,10.60
2019-02-09T20:55:09.074Z,10.28
2019-02-09T20:57:35.494Z,7.97
2019-02-09T21:00:03.771Z,6.62
2019-02-09T21:02:30.430Z,7.42
2019-02-09T21:04:56.898Z,8.55
2019-02-09T21:07:24.676Z,8.03
2019-02-09T21:09:51.271Z,7.90
2019-02-09T21:12:17.654Z,8.88
2019-02-09T21:14:44.101Z,8.68
2019-02-09T21:17:10.657Z,8.73
2019-02-09T21:19:37.113Z,10.45
2019-02-09T21:22:03.938Z,8.85
2019-02-09T21:24:32.422Z,6.25
2019-02-09T21:26:58.946Z,7.95
2019-02-09T21:29:25.418Z,7.40
2019-02-09T21:31:52.056Z,6.97
2019-02-09T21:34:18.506Z,9.05
2019-02-09T21:36:45.047Z,7.25
2019-02-09T21:39:11.500Z,7.58
2019-02-09T21:41:37.949Z,8.70
2019-02-09T21:44:04.413Z,8.00
2019-02-09T21:46:31.131Z,6.80
2019-02-09T21:48:57.816Z,9.33
2019-02-09T21:51:24.435Z,6.47
2019-02-09T21:53:51.654Z,8.73
2019-02-09T21:56:18.219Z,9.53
2019-02-09T21:58:44.751Z,7.60
2019-02-09T22:01:11.387Z,8.80
2019-02-09T22:03:37.834Z,8.05
2019-02-09T22:06:04.525Z,9.90
2019-02-09T22:08:31.615Z,8.13
2019-02-09T22:10:57.975Z,7.50
2019-02-09T22:13:24.489Z,5.15
2019-02-09T22:15:51.121Z,8.48
2019-02-09T22:18:17.643Z,9.63
2019-02-09T22:20:52.192Z,10.38
2019-02-09T22:23:12.496Z,9.65
2019-02-09T22:25:38.990Z,10.00
2019-02-09T22:28:05.658Z,8.70
2019-02-09T22:30:34.948Z,8.13
2019-02-09T22:33:01.653Z,8.85
2019-02-09T22:35:28.503Z,11.97
2019-02-09T22:37:55.906Z,8.08
2019-02-09T22:40:39.605Z,8.95
2019-02-09T22:43:07.157Z,6.05
2019-02-09T22:45:33.653Z,6.45
2019-02-09T22:48:00.124Z,7.85
2019-02-09T22:50:37.656Z,5.53
2019-02-09T22:53:04.479Z,7.03
2019-02-09T22:55:30.985Z,7.90
2019-02-09T22:57:57.442Z,8.35
2019-02-09T23:00:43.849Z,5.60
2019-02-09T23:03:10.519Z,5.42
2019-02-09T23:06:07.955Z,5.62
2019-02-09T23:08:29.678Z,4.65
2019-02-09T23:10:56.398Z,4.17
2019-02-09T23:13:22.883Z,6.65
2019-02-09T23:15:49.639Z,5.30
2019-02-09T23:18:16.015Z,5.55
2019-02-09T23:20:42.581Z,4.62
2019-02-09T23:23:09.238Z,3.85
2019-02-09T23:25:35.746Z,3.08
2019-02-09T23:28:02.223Z,4.95
2019-02-09T23:30:29.118Z,6.90
2019-02-09T23:32:55.682Z,4.45
2019-02-09T23:35:22.140Z,7.92
2019-02-09T23:37:49.769Z,6.85
2019-02-09T23:40:16.126Z,2.77
2019-02-09T23:42:42.589Z,4.90
2019-02-09T23:45:09.169Z,3.85
2019-02-09T23:47:35.714Z,3.55
2019-02-09T23:50:03.188Z,4.75
2019-02-09T23:52:29.905Z,3.30
2019-02-09T23:54:56.325Z,4.60
2019-02-09T23:57:22.794Z,4.47
2019-02-09T23:59:49.247Z,6.40
